createdAt,value
2022-08-02T00:01:11.796Z,980.98
2022-08-02T00:06:43.321Z,981.2
2022-08-02T00:12:15.105Z,981.07
2022-08-02T00:17:49.238Z,981.35
2022-08-02T00:23:18.561Z,981.27
2022-08-02T00:28:50.450Z,981.24
2022-08-02T00:34:37.555Z,981.34
2022-08-02T00:39:53.655Z,981.03
2022-08-02T00:46:04.373Z,981.49
2022-08-02T00:50:57.098Z,981.11
2022-08-02T00:56:28.918Z,981.48
2022-08-02T01:02:05.204Z,981.58
2022-08-02T01:07:40.642Z,981.9
2022-08-02T01:13:08.449Z,981.67
2022-08-02T01:18:40.238Z,981.95
2022-08-02T01:24:11.855Z,981.63
2022-08-02T01:29:43.614Z,981.64
2022-08-02T01:35:15.357Z,982.29
2022-08-02T01:40:47.053Z,982.17
2022-08-02T01:46:18.825Z,982.18
2022-08-02T01:51:50.529Z,982.18
2022-08-02T01:57:22.297Z,982.34
2022-08-02T02:02:58.288Z,982.41
2022-08-02T02:08:30.051Z,982.6
2022-08-02T02:14:01.832Z,982.33
2022-08-02T02:19:33.625Z,982.35
2022-08-02T02:25:07.135Z,982.21
2022-08-02T02:30:36.937Z,982.2
2022-08-02T02:36:08.626Z,982.38
2022-08-02T02:41:40.547Z,982.02
2022-08-02T02:47:12.133Z,982.17
2022-08-02T02:52:43.842Z,982.07
2022-08-02T02:58:15.626Z,982.05
2022-08-02T03:03:51.803Z,981.95
2022-08-02T03:09:23.664Z,982.02
2022-08-02T03:14:55.066Z,981.97
2022-08-02T03:20:26.761Z,981.88
2022-08-02T03:25:58.661Z,982.05
2022-08-02T03:31:33.517Z,982.14
2022-08-02T03:37:02.001Z,982.03
2022-08-02T03:42:33.749Z,982.22
2022-08-02T03:48:35.592Z,982.14
2022-08-02T03:53:37.169Z,982.08
2022-08-02T03:59:08.970Z,982.28
2022-08-02T04:04:45.069Z,982.4
2022-08-02T04:10:16.721Z,982.56
2022-08-02T04:15:48.463Z,982.7
2022-08-02T04:21:20.193Z,982.82
2022-08-02T04:26:53.589Z,982.87
2022-08-02T04:32:23.610Z,983.02
2022-08-02T04:38:11.069Z,983.12
2022-08-02T04:43:27.137Z,983.13
2022-08-02T04:48:58.950Z,983.26
2022-08-02T04:54:30.605Z,983.31
2022-08-02T05:00:02.290Z,983.26
2022-08-02T05:05:38.488Z,983.4
2022-08-02T05:11:10.141Z,983.57
2022-08-02T05:16:41.842Z,983.77
2022-08-02T05:22:14.450Z,983.62
2022-08-02T05:27:45.294Z,983.78
2022-08-02T05:33:17.127Z,983.78
2022-08-02T05:38:50.561Z,983.92
2022-08-02T05:44:20.547Z,983.8
2022-08-02T05:49:52.262Z,983.32
2022-08-02T05:55:24.037Z,983.72
2022-08-02T06:00:55.670Z,983.72
2022-08-02T06:06:31.770Z,983.72
2022-08-02T06:12:03.952Z,983.74
2022-08-02T06:17:45.933Z,983.72
2022-08-02T06:23:14.130Z,983.61
2022-08-02T06:28:38.662Z,983.88
2022-08-02T06:34:10.421Z,983.92
2022-08-02T06:39:42.364Z,983.77
2022-08-02T06:45:13.816Z,984.19
2022-08-02T06:50:45.583Z,983.44
2022-08-02T06:56:17.246Z,983.89
2022-08-02T07:01:49.171Z,983.29
2022-08-02T07:07:25.089Z,984.06
2022-08-02T07:13:00.485Z,984.09
2022-08-02T07:18:28.774Z,983.82
2022-08-02T07:24:00.236Z,984.44
2022-08-02T07:29:47.435Z,984.35
2022-08-02T07:35:08.112Z,984.18
2022-08-02T07:40:35.596Z,983.73
2022-08-02T07:46:07.224Z,983.16
2022-08-02T07:51:38.978Z,984.16
2022-08-02T07:57:10.594Z,984.09
2022-08-02T08:02:42.463Z,983.91
2022-08-02T08:08:20.478Z,984.27
2022-08-02T08:13:52.146Z,984.22
2022-08-02T08:19:53.347Z,984.07
2022-08-02T08:24:55.657Z,984.58
2022-08-02T08:30:27.147Z,983.71
2022-08-02T08:36:02.821Z,984.04
2022-08-02T08:41:32.172Z,983.44
2022-08-02T08:47:02.525Z,983.86
2022-08-02T08:52:34.318Z,983.23
2022-08-02T08:58:05.990Z,983.17
2022-08-02T09:03:37.695Z,984.22
2022-08-02T09:09:13.897Z,982.85
2022-08-02T09:14:45.582Z,983.42
2022-08-02T09:20:17.406Z,984.07
2022-08-02T09:26:05.709Z,983.45
2022-08-02T09:31:20.884Z,983.1
2022-08-02T09:36:56.475Z,983.12
2022-08-02T09:42:32.163Z,983.46
2022-08-02T09:47:55.990Z,983.64
2022-08-02T09:53:27.646Z,983.71
2022-08-02T09:58:59.343Z,982.27
2022-08-02T10:04:50.299Z,982.76
2022-08-02T10:10:07.252Z,983.77
2022-08-02T10:15:51.150Z,982.59
2022-08-02T10:21:10.547Z,982.29
2022-08-02T10:26:42.407Z,981.76
2022-08-02T10:32:16.678Z,981.74
2022-08-02T10:37:46.106Z,981.33
2022-08-02T10:43:17.627Z,981.37
2022-08-02T10:48:49.244Z,981.2
2022-08-02T10:54:20.917Z,981.22
2022-08-02T10:59:52.840Z,981.58
2022-08-02T11:05:24.451Z,981.52
2022-08-02T11:11:00.530Z,982.65
2022-08-02T11:16:32.113Z,982.47
2022-08-02T11:22:03.931Z,982.39
2022-08-02T11:27:35.661Z,982.13
2022-08-02T11:33:07.400Z,981.72
2022-08-02T11:38:39.280Z,981.58
2022-08-02T11:44:11.505Z,980.19
2022-08-02T11:49:43.092Z,980.38
2022-08-02T11:55:14.313Z,980.35
2022-08-02T12:00:46.064Z,980.35
2022-08-02T12:06:19.788Z,981.36
2022-08-02T12:11:55.937Z,980.76
2022-08-02T12:17:27.647Z,981.1
2022-08-02T12:22:59.316Z,981.49
2022-08-02T12:28:31.297Z,981.23
2022-08-02T12:34:02.705Z,980.64
2022-08-02T12:39:34.402Z,979.86
2022-08-02T12:45:06.380Z,980.11
2022-08-02T12:50:38.076Z,979.35
2022-08-02T12:56:09.849Z,980.62
2022-08-02T13:01:41.650Z,980.22
2022-08-02T13:07:13.224Z,980.53
2022-08-02T13:12:49.353Z,980.43
2022-08-02T13:18:21.149Z,979.36
2022-08-02T13:23:55.845Z,979.35
2022-08-02T13:29:26.328Z,979.65
2022-08-02T13:34:56.272Z,979.72
2022-08-02T13:41:04.915Z,979.71
2022-08-02T13:45:59.698Z,978.89
2022-08-02T13:51:39.870Z,979.62
2022-08-02T13:57:03.193Z,979.32
2022-08-02T14:02:41.000Z,979.39
2022-08-02T14:08:06.745Z,978.91
2022-08-02T14:13:42.818Z,978.99
2022-08-02T14:19:17.953Z,977.79
2022-08-02T14:24:46.436Z,978.3
2022-08-02T14:30:17.981Z,978.58
2022-08-02T14:35:57.112Z,977.82
2022-08-02T14:41:21.944Z,978.64
2022-08-02T14:46:53.719Z,978.65
2022-08-02T14:52:24.911Z,978.25
2022-08-02T14:57:56.639Z,977.56
2022-08-02T15:03:30.479Z,978.46
2022-08-02T15:09:00.027Z,978.57
2022-08-02T15:14:36.027Z,977.81
2022-08-02T15:20:26.775Z,978.39
2022-08-02T15:25:42.389Z,977.71
2022-08-02T15:31:34.352Z,977.6
2022-08-02T15:36:42.937Z,977.72
2022-08-02T15:42:16.138Z,977.87
2022-08-02T15:47:51.104Z,977.52
2022-08-02T15:53:18.235Z,977.88
2022-08-02T15:58:59.378Z,978.06
2022-08-02T16:04:21.701Z,977.78
2022-08-02T16:09:53.477Z,977.4
2022-08-02T16:15:29.422Z,977.6
2022-08-02T16:21:01.147Z,977.69
2022-08-02T16:26:32.895Z,977.44
2022-08-02T16:32:04.692Z,977.14
2022-08-02T16:37:53.136Z,977.26
2022-08-02T16:43:09.884Z,977.54
2022-08-02T16:48:39.692Z,976.97
2022-08-02T16:54:11.493Z,976.93
2022-08-02T16:59:58.958Z,976.72
2022-08-02T17:05:15.481Z,976.74
2022-08-02T17:10:46.675Z,976.79
2022-08-02T17:16:26.969Z,976.52
2022-08-02T17:21:57.585Z,976.87
2022-08-02T17:27:27.409Z,976.93
2022-08-02T17:33:00.155Z,976.69
2022-08-02T17:38:29.665Z,976.61
2022-08-02T17:44:02.930Z,976.8
2022-08-02T17:49:36.159Z,976.77
2022-08-02T17:55:05.731Z,976.6
2022-08-02T18:00:37.824Z,976.36
2022-08-02T18:06:10.703Z,976.57
2022-08-02T18:11:54.118Z,976.56
2022-08-02T18:17:16.426Z,976.47
2022-08-02T18:22:59.129Z,976.3
2022-08-02T18:28:27.066Z,976.27
2022-08-02T18:34:03.027Z,976.23
2022-08-02T18:39:23.447Z,976.27
2022-08-02T18:44:57.917Z,976.18
2022-08-02T18:50:32.328Z,976.07
2022-08-02T18:56:04.615Z,976.02
2022-08-02T19:01:50.834Z,975.91
2022-08-02T19:07:08.739Z,975.96
2022-08-02T19:12:33.697Z,976.0
2022-08-02T19:18:09.725Z,975.92
2022-08-02T19:24:43.710Z,975.91
2022-08-02T19:29:14.352Z,975.91
2022-08-02T19:34:45.694Z,975.9
2022-08-02T19:40:18.500Z,975.97
2022-08-02T19:45:52.020Z,975.99
2022-08-02T19:51:56.077Z,976.03
2022-08-02T19:56:57.249Z,976.01
2022-08-02T20:02:23.805Z,976.0
2022-08-02T20:09:01.796Z,976.03
2022-08-02T20:13:47.078Z,976.1
2022-08-02T20:19:03.108Z,976.04
2022-08-02T20:24:34.787Z,975.99
2022-08-02T20:30:07.329Z,975.93
2022-08-02T20:35:38.309Z,975.98
2022-08-02T20:41:10.054Z,976.09
2022-08-02T20:46:43.834Z,976.31
2022-08-02T20:52:25.030Z,976.49
2022-08-02T20:58:02.956Z,976.42
2022-08-02T21:03:23.003Z,976.26
2022-08-02T21:08:48.802Z,976.3
2022-08-02T21:19:58.982Z,976.37
2022-08-02T21:25:58.386Z,976.44
2022-08-02T21:31:00.442Z,976.6
2022-08-02T21:36:34.399Z,976.6
2022-08-02T21:42:03.502Z,976.44
2022-08-02T21:47:37.686Z,976.44
2022-08-02T21:53:43.038Z,976.58
2022-08-02T21:58:38.770Z,976.6
2022-08-02T22:04:16.646Z,976.6
2022-08-02T22:09:46.061Z,976.66
2022-08-02T22:15:15.882Z,976.63
2022-08-02T22:20:52.393Z,976.6
2022-08-02T22:26:23.459Z,976.58
2022-08-02T22:31:53.933Z,976.68
2022-08-02T22:38:18.990Z,976.75
2022-08-02T22:42:58.590Z,976.77
2022-08-02T22:48:30.003Z,976.82
2022-08-02T22:54:00.546Z,976.75
2022-08-02T22:59:41.515Z,976.84
2022-08-02T23:05:03.858Z,976.93
2022-08-02T23:10:35.545Z,976.86
2022-08-02T23:16:07.346Z,976.71
2022-08-02T23:22:03.803Z,976.72
2022-08-02T23:27:15.015Z,976.76
2022-08-02T23:32:48.156Z,976.82
2022-08-02T23:38:18.532Z,976.9
2022-08-02T23:44:15.485Z,976.84
2022-08-02T23:49:22.118Z,976.79
2022-08-02T23:54:53.708Z,976.83
